• Join FlightAware (Why Join?)
  • Login
  • US Flag 
02:44AM EST


 

Airport Tracker/Info


-or-


 

Live Flight TrackerFlight Track Log ✈ EJA831 ✈ 06-Dec-2013 ✈ KCHA - KDAL

Flight Track Log - Related Links

Times and Time Zones

All times are in EST time to prevent confusion due to time zone crossing. See the EJA831 flight status page for this flight to view local times or setup timezone preferences in your user account.

Time Position Orientation Groundspeed Altitude Reporting Facility
EST Latitude Longitude Course Direction KTS MPH feet Rate Location/Type
10:29PM 35.0778 -85.2900 255° West 253 291 7,700  Level Atlanta Center
10:30PM 35.0436 -85.3631 240° Southwest 258 297 10,000 2,580 Climbing Atlanta Center
10:32PM 34.9875 -85.4775 239° Southwest 222 255 15,400 2,760 Climbing Memphis Center
10:33PM 34.9634 -85.7213 242° Southwest  Level Estimated
10:33PM 34.9586 -85.5375 240° Southwest 210 242 18,200  Level Memphis Center
10:34PM 34.9281 -85.6017 240° Southwest 215 247 20,600 2,280 Climbing Memphis Center
10:35PM 34.8867 -85.6889 240° Southwest 242 278 22,900 1,860 Climbing Memphis Center
10:36PM 34.8483 -85.7672 239° Southwest 261 300 24,400 1,500 Climbing Memphis Center
10:37PM 34.8119 -85.8503 242° Southwest 274 315 26,000 1,500 Climbing Atlanta Center
10:38PM 34.7689 -85.9328 238° Southwest 279 321 27,500 1,500 Climbing Atlanta Center
10:39PM 34.7322 -86.0128 241° Southwest 279 321 29,000 1,500 Climbing Atlanta Center
10:40PM 34.6911 -86.0950 239° Southwest 284 327 30,500 1,500 Climbing Atlanta Center
10:41PM 34.6544 -86.1750 241° Southwest 284 327 32,000 1,440 Climbing Atlanta Center
10:42PM 34.6133 -86.2572 239° Southwest 284 327 33,400 960 Climbing Atlanta Center
10:43PM 34.5742 -86.3394 240° Southwest 284 327 34,000 300 Climbing Atlanta Center
10:44PM 34.5308 -86.4292 240° Southwest 295 339 34,000  Level Atlanta Center
10:45PM 34.4831 -86.5208 238° Southwest 309 356 34,000  Level Atlanta Center
10:47PM 34.3903 -86.7139 240° Southwest 327 376 34,000  Level Memphis Center
10:48PM 34.3442 -86.8072 239° Southwest 324 373 34,000  Level Memphis Center
10:49PM 34.2983 -86.9000 239° Southwest 323 372 34,000  Level Memphis Center
10:50PM 34.2525 -86.9950 240° Southwest 324 373 34,000  Level Memphis Center
10:51PM 34.2056 -87.0886 239° Southwest 324 373 34,000  Level Memphis Center
10:52PM 34.1583 -87.1822 239° Southwest 325 374 34,000  Level Memphis Center
10:53PM 34.1097 -87.2811 239° Southwest 325 374 34,000  Level Memphis Center
10:54PM 34.0617 -87.3761 239° Southwest 327 376 34,000  Level Memphis Center
10:55PM 34.0175 -87.4667 240° Southwest 329 379 34,000  Level Memphis Center
10:56PM 34.0042 -87.5767 262° West 333 383 34,000  Level Memphis Center
10:57PM 33.9981 -87.6894 266° West 334 384 34,000  Level Memphis Center
10:58PM 33.9925 -87.8011 267° West 334 384 34,000  Level Memphis Center
10:59PM 33.9864 -87.9131 266° West 334 384 34,000  Level Memphis Center
11:00PM 33.9803 -88.0242 266° West 333 383 34,000  Level Memphis Center
11:01PM 33.9761 -88.1358 267° West 333 383 34,000  Level Memphis Center
11:02PM 33.9692 -88.2467 266° West 333 383 34,000  Level Memphis Center
11:03PM 33.9619 -88.3800 266° West 332 382 34,000  Level Memphis Center
11:04PM 33.9558 -88.4897 266° West 330 380 34,000  Level Memphis Center
11:05PM 33.9497 -88.6014 266° West 333 383 34,000  Level Memphis Center
11:06PM 33.9428 -88.7103 266° West 329 379 34,000  Level Memphis Center
11:07PM 33.9358 -88.8203 266° West 329 379 34,000  Level Memphis Center
11:08PM 33.9303 -88.9258 266° West 328 377 34,000  Level Memphis Center
11:09PM 33.9244 -89.0375 266° West 328 377 34,000  Level Memphis Center
11:10PM 33.9172 -89.1489 266° West 330 380 34,000  Level Memphis Center
11:11PM 33.9100 -89.2594 266° West 329 379 34,000  Level Memphis Center
11:12PM 33.9031 -89.3697 266° West 327 376 34,000  Level Memphis Center
11:13PM 33.8961 -89.4817 266° West 329 379 34,000  Level Memphis Center
11:14PM 33.8892 -89.5933 266° West 331 381 34,000  Level Memphis Center
11:15PM 33.8817 -89.7042 265° West 329 379 34,000  Level Memphis Center
11:16PM 33.8739 -89.8144 265° West 328 377 34,000  Level Memphis Center
11:17PM 33.8669 -89.9239 266° West 327 376 34,000  Level Memphis Center
11:18PM 33.8597 -90.0344 266° West 327 376 34,000  Level Memphis Center
11:19PM 33.8519 -90.1450 265° West 327 376 34,000  Level Memphis Center
11:20PM 33.8436 -90.2539 265° West 326 375 34,000  Level Memphis Center
11:21PM 33.8367 -90.3639 266° West 325 374 34,000  Level Memphis Center
11:23PM 33.8281 -90.4742 265° West 327 376 34,000  Level Memphis Center
11:24PM 33.8206 -90.5825 265° West 324 373 34,000  Level Memphis Center
11:25PM 33.8114 -90.6961 264° West 326 375 34,000  Level Memphis Center
11:26PM 33.8039 -90.8036 265° West 325 374 34,000  Level Memphis Center
11:27PM 33.7958 -90.9100 265° West 324 373 34,000  Level Memphis Center
11:28PM 33.7875 -91.0181 265° West 325 374 34,000  Level Memphis Center
11:29PM 33.7789 -91.1233 264° West 323 372 34,000  Level Memphis Center
11:30PM 33.7706 -91.2297 265° West 322 371 34,000  Level Memphis Center
11:31PM 33.7619 -91.3383 265° West 325 374 34,000  Level Memphis Center
11:32PM 33.7550 -91.4464 266° West 327 376 34,000  Level Memphis Center
11:33PM 33.7456 -91.5536 264° West 326 375 34,000  Level Memphis Center
11:34PM 33.7353 -91.6606 263° West 324 373 34,000  Level Memphis Center
11:35PM 33.7267 -91.7822 265° West 323 372 34,000  Level Memphis Center
11:36PM 33.7167 -91.8894 264° West 323 372 34,000  Level Memphis Center
11:37PM 33.7089 -91.9964 265° West 323 372 34,000  Level Memphis Center
11:38PM 33.6989 -92.1036 264° West 324 373 34,000  Level Memphis Center
11:39PM 33.6894 -92.2111 264° West 324 373 34,000  Level Memphis Center
11:40PM 33.6792 -92.3186 263° West 325 374 34,000  Level Memphis Center
11:41PM 33.6703 -92.4253 264° West 323 372 34,000  Level Memphis Center
11:42PM 33.6603 -92.5328 264° West 325 374 34,000  Level Memphis Center
11:43PM 33.6514 -92.6400 264° West 324 373 34,000  Level Memphis Center
11:44PM 33.6422 -92.7469 264° West 324 373 34,000  Level Memphis Center
11:45PM 33.6317 -92.8544 263° West 324 373 34,000  Level Memphis Center
11:46PM 33.6219 -92.9608 264° West 323 372 34,000  Level Memphis Center
11:47PM 33.6108 -93.0903 264° West 326 375 34,000  Level Memphis Center
11:48PM 33.5997 -93.1975 263° West 325 374 34,000  Level Memphis Center
11:49PM 33.5894 -93.3044 263° West 324 373 34,000  Level Memphis Center
11:50PM 33.5792 -93.4103 263° West 323 372 34,000  Level Memphis Center
11:51PM 33.5694 -93.5156 264° West 321 369 34,000  Level Memphis Center
11:52PM 33.5592 -93.6211 263° West 321 369 34,000  Level Memphis Center
11:53PM 33.5478 -93.7467 264° West 320 368 34,000  Level Fort Worth Center
11:54PM 33.5378 -93.8508 263° West 321 369 34,000  Level Fort Worth Center
11:55PM 33.5275 -93.9556 263° West 321 369 34,000  Level Fort Worth Center
11:56PM 33.5178 -94.0597 264° West 320 368 34,000 -180 Level Fort Worth Center
11:57PM 33.5033 -94.1631 261° West 319 367 33,700 -840 Descending Fort Worth Center
11:58PM 33.4803 -94.2581 254° West 303 349 32,400 -1,380 Descending Fort Worth Center
11:59PM 33.4578 -94.3569 255° West 309 356 31,000 -1,440 Descending Fort Worth Center
12:00AM 33.4333 -94.4594 254° West 320 368 29,600 -1,440 Descending Fort Worth Center
12:01AM 33.4092 -94.5631 254° West 326 375 28,200 -1,440 Descending Fort Worth Center
12:02AM 33.3842 -94.6672 254° West 327 376 26,800 -1,440 Descending Fort Worth Center
12:03AM 33.3597 -94.7739 255° West 335 386 25,400 -1,440 Descending Fort Worth Center
12:04AM 33.3336 -94.8803 254° West 338 389 24,000 -1,440 Descending Fort Worth Center
12:05AM 33.3072 -94.9853 253° West 331 381 22,600 -1,440 Descending Fort Worth Center
12:06AM 33.2811 -95.0903 253° West 329 379 21,200 -1,560 Descending Fort Worth Center
12:07AM 33.2536 -95.2172 256° West 332 382 19,500 -1,500 Descending Fort Worth Center
12:08AM 33.2294 -95.3200 254° West 318 366 18,200 -1,200 Descending Fort Worth Center
12:09AM 33.2036 -95.4233 253° West 326 375 17,200 -1,200 Descending Fort Worth Center
12:10AM 33.1781 -95.5261 253° West 323 372 15,800 -1,440 Descending Fort Worth Center
12:11AM 33.1517 -95.6317 253° West 318 366 14,400 -1,440 Descending Fort Worth Center
12:12AM 33.1283 -95.7253 253° West 295 339 13,000 -1,440 Descending Fort Worth Center
12:13AM 33.1058 -95.8156 253° West 290 334 11,600 -1,020 Descending Fort Worth Center
12:14AM 33.0844 -95.9031 254° West 279 321 11,000 -300 Descending Fort Worth Center
12:15AM 33.0625 -95.9925 254° West 283 326 11,000  Level Fort Worth Center
12:16AM 33.0394 -96.0847 253° West 293 337 11,000  Level Fort Worth Center
12:17AM 33.0172 -96.1767 254° West 290 334 11,000 -360 Level Fort Worth Center
12:18AM 32.9950 -96.2650 253° West 282 325 10,300 -1,380 Descending Fort Worth Center
12:19AM 32.9747 -96.3447 253° West 256 295 8,300 -2,040 Descending Fort Worth Center
12:20AM 32.9536 -96.4292 253° West 264 304 6,200 -1,980 Descending Fort Worth Center
12:21AM 32.9064 -96.5003 232° Southwest 273 314 4,400 -1,200 Descending Fort Worth Center
12:22AM 32.8581 -96.5722 231° Southwest 275 316 3,800 -900 Descending Fort Worth Center
12:23AM 32.8133 -96.6414 232° Southwest 265 305 2,600 -660 Descending Fort Worth Center
12:24AM 32.7700 -96.7056 231° Southwest 234 269 2,500 -60 Descending Fort Worth Center
12:25AM 32.7664 -96.7650 266° West 179 206 2,500 -360 Level Fort Worth Center
12:26AM 32.8000 -96.8000 319° Northwest 105 121 1,800 -660 Descending Dallas / Fort Worth TRACON
12:28AM 32.8167 -96.8167 320° Northwest 100 115 1,100 -660 Descending Dallas / Fort Worth TRACON
12:30AM 32.8333 -96.8500 257° West  Level FlightAware Approximate
12:37AM 32.8471 -96.8518 257° West  Level Estimated